sensor_id;sensor_type;location;lat;lon;timestamp;P1;durP1;ratioP1;P2;durP2;ratioP2
17741;SDS011;8993;51.822;-2.268;2023-12-20T00:02:27;20.33;;;2.34;;
17741;SDS011;8993;51.822;-2.268;2023-12-20T00:07:31;21.22;;;2.48;;
17741;SDS011;8993;51.822;-2.268;2023-12-20T00:12:36;17.16;;;2.04;;
17741;SDS011;8993;51.822;-2.268;2023-12-20T00:17:43;21.50;;;2.38;;
17741;SDS011;8993;51.822;-2.268;2023-12-20T00:22:47;18.73;;;2.11;;
17741;SDS011;8993;51.822;-2.268;2023-12-20T00:27:52;22.54;;;2.02;;
17741;SDS011;8993;51.822;-2.268;2023-12-20T00:32:56;20.60;;;2.55;;
17741;SDS011;8993;51.822;-2.268;2023-12-20T00:38:01;21.75;;;2.33;;
17741;SDS011;8993;51.822;-2.268;2023-12-20T00:43:05;20.80;;;2.10;;
17741;SDS011;8993;51.822;-2.268;2023-12-20T00:48:09;22.22;;;2.34;;
17741;SDS011;8993;51.822;-2.268;2023-12-20T00:53:14;19.37;;;2.32;;
17741;SDS011;8993;51.822;-2.268;2023-12-20T00:58:18;21.74;;;2.18;;
17741;SDS011;8993;51.822;-2.268;2023-12-20T01:03:23;20.64;;;2.32;;
17741;SDS011;8993;51.822;-2.268;2023-12-20T01:08:27;21.34;;;2.45;;
17741;SDS011;8993;51.822;-2.268;2023-12-20T01:13:32;21.36;;;2.52;;
17741;SDS011;8993;51.822;-2.268;2023-12-20T01:18:36;19.42;;;2.22;;
17741;SDS011;8993;51.822;-2.268;2023-12-20T01:23:41;18.55;;;2.50;;
17741;SDS011;8993;51.822;-2.268;2023-12-20T01:28:45;21.32;;;2.40;;
17741;SDS011;8993;51.822;-2.268;2023-12-20T01:33:49;20.96;;;2.48;;
17741;SDS011;8993;51.822;-2.268;2023-12-20T01:38:54;17.75;;;2.52;;
17741;SDS011;8993;51.822;-2.268;2023-12-20T01:43:59;24.04;;;2.42;;
17741;SDS011;8993;51.822;-2.268;2023-12-20T01:49:03;19.39;;;2.31;;
17741;SDS011;8993;51.822;-2.268;2023-12-20T01:54:08;20.40;;;2.39;;
17741;SDS011;8993;51.822;-2.268;2023-12-20T01:59:12;18.01;;;2.16;;
17741;SDS011;8993;51.822;-2.268;2023-12-20T02:04:17;19.71;;;2.25;;
17741;SDS011;8993;51.822;-2.268;2023-12-20T02:09:22;21.66;;;2.29;;
17741;SDS011;8993;51.822;-2.268;2023-12-20T02:14:26;21.22;;;2.68;;
17741;SDS011;8993;51.822;-2.268;2023-12-20T02:19:30;19.26;;;2.16;;
17741;SDS011;8993;51.822;-2.268;2023-12-20T02:24:35;20.63;;;2.35;;
17741;SDS011;8993;51.822;-2.268;2023-12-20T02:29:40;20.06;;;2.48;;
17741;SDS011;8993;51.822;-2.268;2023-12-20T02:34:45;20.14;;;2.48;;
17741;SDS011;8993;51.822;-2.268;2023-12-20T02:39:49;19.87;;;2.57;;
17741;SDS011;8993;51.822;-2.268;2023-12-20T02:44:54;19.36;;;2.19;;
17741;SDS011;8993;51.822;-2.268;2023-12-20T02:55:04;18.57;;;2.38;;
17741;SDS011;8993;51.822;-2.268;2023-12-20T03:00:09;20.48;;;2.41;;
17741;SDS011;8993;51.822;-2.268;2023-12-20T03:05:13;20.73;;;2.29;;
17741;SDS011;8993;51.822;-2.268;2023-12-20T03:10:18;21.62;;;2.29;;
17741;SDS011;8993;51.822;-2.268;2023-12-20T03:15:22;19.87;;;2.23;;
17741;SDS011;8993;51.822;-2.268;2023-12-20T03:20:26;19.40;;;2.43;;
17741;SDS011;8993;51.822;-2.268;2023-12-20T03:25:31;19.61;;;2.27;;
17741;SDS011;8993;51.822;-2.268;2023-12-20T03:30:35;22.30;;;2.68;;
17741;SDS011;8993;51.822;-2.268;2023-12-20T03:35:40;21.35;;;2.46;;
17741;SDS011;8993;51.822;-2.268;2023-12-20T03:40:48;18.50;;;2.13;;
17741;SDS011;8993;51.822;-2.268;2023-12-20T03:45:50;21.69;;;2.72;;
17741;SDS011;8993;51.822;-2.268;2023-12-20T03:50:56;17.43;;;2.60;;
17741;SDS011;8993;51.822;-2.268;2023-12-20T03:56:00;19.64;;;2.16;;
17741;SDS011;8993;51.822;-2.268;2023-12-20T04:01:08;18.68;;;2.26;;
17741;SDS011;8993;51.822;-2.268;2023-12-20T04:06:09;18.93;;;2.42;;
17741;SDS011;8993;51.822;-2.268;2023-12-20T04:11:15;19.40;;;2.32;;
17741;SDS011;8993;51.822;-2.268;2023-12-20T04:16:19;17.03;;;2.46;;
17741;SDS011;8993;51.822;-2.268;2023-12-20T04:21:23;16.52;;;2.37;;
17741;SDS011;8993;51.822;-2.268;2023-12-20T04:26:28;19.25;;;2.58;;
17741;SDS011;8993;51.822;-2.268;2023-12-20T04:31:33;19.68;;;2.51;;
17741;SDS011;8993;51.822;-2.268;2023-12-20T04:36:37;21.26;;;2.53;;
17741;SDS011;8993;51.822;-2.268;2023-12-20T04:41:42;20.21;;;2.64;;
17741;SDS011;8993;51.822;-2.268;2023-12-20T04:46:46;20.55;;;2.76;;
17741;SDS011;8993;51.822;-2.268;2023-12-20T04:51:51;17.20;;;2.51;;
17741;SDS011;8993;51.822;-2.268;2023-12-20T04:56:55;18.21;;;2.61;;
17741;SDS011;8993;51.822;-2.268;2023-12-20T05:02:00;21.22;;;2.60;;
17741;SDS011;8993;51.822;-2.268;2023-12-20T05:07:04;21.56;;;2.74;;
17741;SDS011;8993;51.822;-2.268;2023-12-20T05:12:09;20.50;;;2.59;;
17741;SDS011;8993;51.822;-2.268;2023-12-20T05:17:13;20.78;;;2.53;;
17741;SDS011;8993;51.822;-2.268;2023-12-20T05:22:19;19.10;;;2.53;;
17741;SDS011;8993;51.822;-2.268;2023-12-20T05:27:22;19.12;;;2.41;;
17741;SDS011;8993;51.822;-2.268;2023-12-20T05:32:27;19.68;;;2.61;;
17741;SDS011;8993;51.822;-2.268;2023-12-20T05:37:31;19.99;;;2.62;;
17741;SDS011;8993;51.822;-2.268;2023-12-20T05:42:35;22.56;;;3.05;;
17741;SDS011;8993;51.822;-2.268;2023-12-20T05:47:40;18.03;;;2.53;;
17741;SDS011;8993;51.822;-2.268;2023-12-20T05:52:44;23.03;;;2.75;;
17741;SDS011;8993;51.822;-2.268;2023-12-20T05:57:49;20.94;;;2.96;;
17741;SDS011;8993;51.822;-2.268;2023-12-20T06:02:53;20.00;;;2.63;;
17741;SDS011;8993;51.822;-2.268;2023-12-20T06:07:58;21.58;;;2.54;;
17741;SDS011;8993;51.822;-2.268;2023-12-20T06:13:02;18.72;;;2.50;;
17741;SDS011;8993;51.822;-2.268;2023-12-20T06:18:06;19.37;;;2.51;;
17741;SDS011;8993;51.822;-2.268;2023-12-20T06:23:11;18.33;;;2.32;;
17741;SDS011;8993;51.822;-2.268;2023-12-20T06:28:15;19.87;;;2.54;;
17741;SDS011;8993;51.822;-2.268;2023-12-20T06:33:20;19.14;;;2.35;;
17741;SDS011;8993;51.822;-2.268;2023-12-20T06:38:24;18.83;;;2.14;;
17741;SDS011;8993;51.822;-2.268;2023-12-20T06:43:29;15.07;;;2.06;;
17741;SDS011;8993;51.822;-2.268;2023-12-20T06:48:33;11.25;;;1.48;;
17741;SDS011;8993;51.822;-2.268;2023-12-20T06:53:37;14.91;;;1.58;;
17741;SDS011;8993;51.822;-2.268;2023-12-20T06:58:42;12.68;;;1.68;;
17741;SDS011;8993;51.822;-2.268;2023-12-20T07:03:47;13.92;;;1.50;;
17741;SDS011;8993;51.822;-2.268;2023-12-20T07:08:52;13.36;;;1.72;;
17741;SDS011;8993;51.822;-2.268;2023-12-20T07:13:56;14.59;;;1.66;;
17741;SDS011;8993;51.822;-2.268;2023-12-20T07:19:00;12.76;;;1.59;;
17741;SDS011;8993;51.822;-2.268;2023-12-20T07:24:05;13.48;;;1.66;;
17741;SDS011;8993;51.822;-2.268;2023-12-20T07:29:09;13.30;;;1.66;;
17741;SDS011;8993;51.822;-2.268;2023-12-20T07:34:13;10.94;;;1.59;;
17741;SDS011;8993;51.822;-2.268;2023-12-20T07:39:17;13.01;;;1.42;;
17741;SDS011;8993;51.822;-2.268;2023-12-20T07:44:22;13.97;;;1.79;;
17741;SDS011;8993;51.822;-2.268;2023-12-20T07:49:26;10.24;;;1.54;;
17741;SDS011;8993;51.822;-2.268;2023-12-20T07:54:31;13.52;;;1.77;;
17741;SDS011;8993;51.822;-2.268;2023-12-20T07:59:35;11.32;;;1.44;;
17741;SDS011;8993;51.822;-2.268;2023-12-20T08:04:40;13.10;;;1.55;;
17741;SDS011;8993;51.822;-2.268;2023-12-20T08:09:58;11.50;;;1.52;;
17741;SDS011;8993;51.822;-2.268;2023-12-20T08:14:52;11.88;;;1.48;;
17741;SDS011;8993;51.822;-2.268;2023-12-20T08:19:56;10.51;;;1.37;;
17741;SDS011;8993;51.822;-2.268;2023-12-20T08:25:01;11.72;;;1.32;;
17741;SDS011;8993;51.822;-2.268;2023-12-20T08:30:05;11.99;;;1.33;;
17741;SDS011;8993;51.822;-2.268;2023-12-20T08:35:09;12.62;;;1.54;;
17741;SDS011;8993;51.822;-2.268;2023-12-20T08:40:14;13.31;;;1.40;;
17741;SDS011;8993;51.822;-2.268;2023-12-20T08:45:18;14.32;;;1.81;;
17741;SDS011;8993;51.822;-2.268;2023-12-20T08:50:22;16.29;;;1.92;;
17741;SDS011;8993;51.822;-2.268;2023-12-20T08:55:27;15.86;;;2.08;;
17741;SDS011;8993;51.822;-2.268;2023-12-20T09:00:31;13.73;;;1.61;;
17741;SDS011;8993;51.822;-2.268;2023-12-20T09:05:36;13.14;;;1.66;;
17741;SDS011;8993;51.822;-2.268;2023-12-20T09:10:41;11.38;;;1.50;;
17741;SDS011;8993;51.822;-2.268;2023-12-20T09:15:47;9.73;;;1.35;;
17741;SDS011;8993;51.822;-2.268;2023-12-20T09:20:52;11.12;;;1.56;;
17741;SDS011;8993;51.822;-2.268;2023-12-20T09:25:57;11.26;;;1.41;;
17741;SDS011;8993;51.822;-2.268;2023-12-20T09:31:01;11.40;;;1.33;;
17741;SDS011;8993;51.822;-2.268;2023-12-20T09:36:06;13.48;;;1.37;;
17741;SDS011;8993;51.822;-2.268;2023-12-20T09:41:10;12.18;;;1.49;;
17741;SDS011;8993;51.822;-2.268;2023-12-20T09:46:17;10.19;;;1.33;;
17741;SDS011;8993;51.822;-2.268;2023-12-20T09:51:21;8.90;;;1.24;;
17741;SDS011;8993;51.822;-2.268;2023-12-20T09:56:26;10.03;;;1.39;;
17741;SDS011;8993;51.822;-2.268;2023-12-20T10:01:30;9.21;;;1.28;;
17741;SDS011;8993;51.822;-2.268;2023-12-20T10:06:34;6.45;;;1.07;;
17741;SDS011;8993;51.822;-2.268;2023-12-20T10:11:39;8.57;;;1.14;;
17741;SDS011;8993;51.822;-2.268;2023-12-20T10:16:43;9.63;;;1.20;;
17741;SDS011;8993;51.822;-2.268;2023-12-20T10:21:48;5.56;;;0.95;;
17741;SDS011;8993;51.822;-2.268;2023-12-20T10:27:00;7.62;;;1.12;;
17741;SDS011;8993;51.822;-2.268;2023-12-20T10:31:57;5.84;;;0.92;;
17741;SDS011;8993;51.822;-2.268;2023-12-20T10:37:01;6.18;;;0.99;;
17741;SDS011;8993;51.822;-2.268;2023-12-20T10:42:05;7.10;;;0.85;;
17741;SDS011;8993;51.822;-2.268;2023-12-20T10:47:10;4.92;;;0.65;;
17741;SDS011;8993;51.822;-2.268;2023-12-20T10:52:14;4.24;;;0.64;;
17741;SDS011;8993;51.822;-2.268;2023-12-20T10:57:19;5.37;;;0.61;;
17741;SDS011;8993;51.822;-2.268;2023-12-20T11:02:24;4.73;;;0.64;;
17741;SDS011;8993;51.822;-2.268;2023-12-20T11:07:29;4.40;;;0.64;;
17741;SDS011;8993;51.822;-2.268;2023-12-20T11:12:36;4.68;;;0.59;;
17741;SDS011;8993;51.822;-2.268;2023-12-20T11:17:38;3.58;;;0.58;;
17741;SDS011;8993;51.822;-2.268;2023-12-20T11:22:52;4.77;;;0.67;;
17741;SDS011;8993;51.822;-2.268;2023-12-20T11:28:06;4.37;;;0.57;;
17741;SDS011;8993;51.822;-2.268;2023-12-20T11:32:51;3.71;;;0.57;;
17741;SDS011;8993;51.822;-2.268;2023-12-20T11:37:55;3.96;;;0.62;;
17741;SDS011;8993;51.822;-2.268;2023-12-20T11:42:59;3.77;;;0.61;;
17741;SDS011;8993;51.822;-2.268;2023-12-20T11:48:04;2.16;;;0.48;;
17741;SDS011;8993;51.822;-2.268;2023-12-20T11:53:09;2.99;;;0.57;;
17741;SDS011;8993;51.822;-2.268;2023-12-20T11:58:13;1.98;;;0.43;;
17741;SDS011;8993;51.822;-2.268;2023-12-20T12:03:18;2.01;;;0.46;;
17741;SDS011;8993;51.822;-2.268;2023-12-20T12:08:22;2.34;;;0.50;;
17741;SDS011;8993;51.822;-2.268;2023-12-20T12:13:27;2.85;;;0.41;;
17741;SDS011;8993;51.822;-2.268;2023-12-20T12:18:31;2.41;;;0.47;;
17741;SDS011;8993;51.822;-2.268;2023-12-20T12:23:36;1.61;;;0.46;;
17741;SDS011;8993;51.822;-2.268;2023-12-20T12:28:40;3.62;;;0.39;;
17741;SDS011;8993;51.822;-2.268;2023-12-20T12:33:44;2.97;;;0.60;;
17741;SDS011;8993;51.822;-2.268;2023-12-20T12:38:51;1.16;;;0.36;;
17741;SDS011;8993;51.822;-2.268;2023-12-20T12:43:55;1.73;;;0.37;;
17741;SDS011;8993;51.822;-2.268;2023-12-20T12:49:00;3.50;;;0.47;;
17741;SDS011;8993;51.822;-2.268;2023-12-20T12:54:04;2.66;;;0.41;;
17741;SDS011;8993;51.822;-2.268;2023-12-20T12:59:09;3.20;;;0.39;;
17741;SDS011;8993;51.822;-2.268;2023-12-20T13:04:13;3.08;;;0.51;;
17741;SDS011;8993;51.822;-2.268;2023-12-20T13:09:18;2.88;;;0.52;;
17741;SDS011;8993;51.822;-2.268;2023-12-20T13:14:23;2.80;;;0.52;;
17741;SDS011;8993;51.822;-2.268;2023-12-20T13:19:27;3.34;;;0.68;;
17741;SDS011;8993;51.822;-2.268;2023-12-20T13:24:32;3.24;;;0.58;;
17741;SDS011;8993;51.822;-2.268;2023-12-20T13:29:36;2.71;;;0.49;;
17741;SDS011;8993;51.822;-2.268;2023-12-20T13:34:41;3.55;;;0.62;;
17741;SDS011;8993;51.822;-2.268;2023-12-20T13:39:45;4.56;;;0.75;;
17741;SDS011;8993;51.822;-2.268;2023-12-20T13:44:50;2.96;;;0.67;;
17741;SDS011;8993;51.822;-2.268;2023-12-20T13:49:55;3.72;;;0.74;;
17741;SDS011;8993;51.822;-2.268;2023-12-20T13:54:59;3.06;;;0.61;;
17741;SDS011;8993;51.822;-2.268;2023-12-20T14:00:04;2.47;;;0.58;;
17741;SDS011;8993;51.822;-2.268;2023-12-20T14:05:08;3.20;;;0.66;;
17741;SDS011;8993;51.822;-2.268;2023-12-20T14:10:13;3.23;;;0.51;;
17741;SDS011;8993;51.822;-2.268;2023-12-20T14:15:17;1.91;;;0.41;;
17741;SDS011;8993;51.822;-2.268;2023-12-20T14:20:21;2.47;;;0.54;;
17741;SDS011;8993;51.822;-2.268;2023-12-20T14:25:26;2.06;;;0.58;;
17741;SDS011;8993;51.822;-2.268;2023-12-20T14:30:30;1.74;;;0.44;;
17741;SDS011;8993;51.822;-2.268;2023-12-20T14:35:35;1.95;;;0.43;;
17741;SDS011;8993;51.822;-2.268;2023-12-20T14:40:40;2.88;;;0.50;;
17741;SDS011;8993;51.822;-2.268;2023-12-20T14:45:44;3.18;;;0.57;;
17741;SDS011;8993;51.822;-2.268;2023-12-20T14:50:49;3.84;;;0.65;;
17741;SDS011;8993;51.822;-2.268;2023-12-20T14:55:53;4.67;;;0.88;;
17741;SDS011;8993;51.822;-2.268;2023-12-20T15:00:58;4.13;;;0.91;;
17741;SDS011;8993;51.822;-2.268;2023-12-20T15:06:02;7.71;;;1.09;;
17741;SDS011;8993;51.822;-2.268;2023-12-20T15:11:06;5.54;;;0.97;;
17741;SDS011;8993;51.822;-2.268;2023-12-20T15:16:11;6.78;;;1.01;;
17741;SDS011;8993;51.822;-2.268;2023-12-20T15:21:16;7.74;;;0.99;;
17741;SDS011;8993;51.822;-2.268;2023-12-20T15:26:20;6.55;;;1.11;;
17741;SDS011;8993;51.822;-2.268;2023-12-20T15:31:24;7.16;;;1.11;;
17741;SDS011;8993;51.822;-2.268;2023-12-20T15:36:28;5.80;;;1.03;;
17741;SDS011;8993;51.822;-2.268;2023-12-20T15:41:33;6.52;;;1.20;;
17741;SDS011;8993;51.822;-2.268;2023-12-20T15:46:37;6.44;;;1.32;;
17741;SDS011;8993;51.822;-2.268;2023-12-20T15:51:42;7.93;;;1.39;;
17741;SDS011;8993;51.822;-2.268;2023-12-20T15:56:46;5.93;;;1.22;;
17741;SDS011;8993;51.822;-2.268;2023-12-20T16:01:51;5.27;;;0.96;;
17741;SDS011;8993;51.822;-2.268;2023-12-20T16:06:55;4.77;;;1.04;;
17741;SDS011;8993;51.822;-2.268;2023-12-20T16:12:01;8.20;;;1.24;;
17741;SDS011;8993;51.822;-2.268;2023-12-20T16:17:05;6.89;;;1.09;;
17741;SDS011;8993;51.822;-2.268;2023-12-20T16:22:09;8.01;;;1.37;;
17741;SDS011;8993;51.822;-2.268;2023-12-20T16:27:14;6.43;;;1.14;;
17741;SDS011;8993;51.822;-2.268;2023-12-20T16:32:18;6.42;;;1.22;;
17741;SDS011;8993;51.822;-2.268;2023-12-20T16:37:23;8.69;;;1.39;;
17741;SDS011;8993;51.822;-2.268;2023-12-20T16:42:27;8.97;;;1.36;;
17741;SDS011;8993;51.822;-2.268;2023-12-20T16:47:31;11.50;;;2.35;;
17741;SDS011;8993;51.822;-2.268;2023-12-20T16:52:35;12.37;;;2.06;;
17741;SDS011;8993;51.822;-2.268;2023-12-20T16:57:40;13.67;;;2.00;;
17741;SDS011;8993;51.822;-2.268;2023-12-20T17:02:44;11.98;;;2.18;;
17741;SDS011;8993;51.822;-2.268;2023-12-20T17:07:48;13.80;;;2.25;;
17741;SDS011;8993;51.822;-2.268;2023-12-20T17:12:53;15.31;;;2.61;;
17741;SDS011;8993;51.822;-2.268;2023-12-20T17:18:11;18.34;;;4.18;;
17741;SDS011;8993;51.822;-2.268;2023-12-20T17:23:02;18.47;;;3.65;;
17741;SDS011;8993;51.822;-2.268;2023-12-20T17:28:06;17.66;;;2.75;;
17741;SDS011;8993;51.822;-2.268;2023-12-20T17:33:11;13.93;;;2.53;;
17741;SDS011;8993;51.822;-2.268;2023-12-20T17:38:15;15.40;;;2.51;;
17741;SDS011;8993;51.822;-2.268;2023-12-20T17:43:19;18.31;;;2.93;;
17741;SDS011;8993;51.822;-2.268;2023-12-20T17:48:24;23.94;;;3.51;;
17741;SDS011;8993;51.822;-2.268;2023-12-20T17:53:28;21.82;;;3.47;;
17741;SDS011;8993;51.822;-2.268;2023-12-20T17:58:33;23.46;;;4.23;;
17741;SDS011;8993;51.822;-2.268;2023-12-20T18:03:37;22.41;;;4.02;;
17741;SDS011;8993;51.822;-2.268;2023-12-20T18:08:41;28.82;;;4.61;;
17741;SDS011;8993;51.822;-2.268;2023-12-20T18:13:46;25.93;;;4.73;;
17741;SDS011;8993;51.822;-2.268;2023-12-20T18:18:50;26.61;;;4.60;;
17741;SDS011;8993;51.822;-2.268;2023-12-20T18:23:55;25.41;;;4.41;;
17741;SDS011;8993;51.822;-2.268;2023-12-20T18:28:59;23.53;;;4.05;;
17741;SDS011;8993;51.822;-2.268;2023-12-20T18:34:03;24.17;;;3.81;;
17741;SDS011;8993;51.822;-2.268;2023-12-20T18:39:07;23.00;;;3.88;;
17741;SDS011;8993;51.822;-2.268;2023-12-20T18:44:12;24.36;;;4.42;;
17741;SDS011;8993;51.822;-2.268;2023-12-20T18:49:16;28.55;;;4.44;;
17741;SDS011;8993;51.822;-2.268;2023-12-20T18:54:20;27.04;;;4.39;;
17741;SDS011;8993;51.822;-2.268;2023-12-20T18:59:24;28.98;;;4.44;;
17741;SDS011;8993;51.822;-2.268;2023-12-20T19:04:30;28.04;;;4.65;;
17741;SDS011;8993;51.822;-2.268;2023-12-20T19:09:34;26.25;;;4.23;;
17741;SDS011;8993;51.822;-2.268;2023-12-20T19:14:39;23.66;;;3.87;;
17741;SDS011;8993;51.822;-2.268;2023-12-20T19:19:43;21.81;;;3.95;;
17741;SDS011;8993;51.822;-2.268;2023-12-20T19:24:47;21.82;;;3.69;;
17741;SDS011;8993;51.822;-2.268;2023-12-20T19:29:51;22.95;;;4.16;;
17741;SDS011;8993;51.822;-2.268;2023-12-20T19:34:55;22.83;;;3.95;;
17741;SDS011;8993;51.822;-2.268;2023-12-20T19:40:00;24.24;;;3.60;;
17741;SDS011;8993;51.822;-2.268;2023-12-20T19:45:05;19.93;;;3.40;;
17741;SDS011;8993;51.822;-2.268;2023-12-20T19:50:09;18.59;;;3.19;;
17741;SDS011;8993;51.822;-2.268;2023-12-20T19:55:13;16.38;;;2.77;;
17741;SDS011;8993;51.822;-2.268;2023-12-20T20:00:17;13.50;;;2.52;;
17741;SDS011;8993;51.822;-2.268;2023-12-20T20:05:21;18.63;;;2.74;;
17741;SDS011;8993;51.822;-2.268;2023-12-20T20:10:26;15.55;;;2.49;;
17741;SDS011;8993;51.822;-2.268;2023-12-20T20:15:30;22.58;;;3.39;;
17741;SDS011;8993;51.822;-2.268;2023-12-20T20:20:35;22.89;;;3.42;;
17741;SDS011;8993;51.822;-2.268;2023-12-20T20:30:47;21.60;;;2.92;;
17741;SDS011;8993;51.822;-2.268;2023-12-20T20:35:51;18.00;;;3.04;;
17741;SDS011;8993;51.822;-2.268;2023-12-20T20:40:56;22.62;;;3.65;;
17741;SDS011;8993;51.822;-2.268;2023-12-20T20:46:00;20.18;;;4.47;;
17741;SDS011;8993;51.822;-2.268;2023-12-20T20:51:05;18.42;;;4.36;;
17741;SDS011;8993;51.822;-2.268;2023-12-20T20:56:09;20.93;;;4.32;;
17741;SDS011;8993;51.822;-2.268;2023-12-20T21:01:13;21.84;;;4.69;;
17741;SDS011;8993;51.822;-2.268;2023-12-20T21:06:17;16.59;;;3.68;;
17741;SDS011;8993;51.822;-2.268;2023-12-20T21:11:22;15.36;;;3.43;;
17741;SDS011;8993;51.822;-2.268;2023-12-20T21:16:27;16.61;;;3.14;;
17741;SDS011;8993;51.822;-2.268;2023-12-20T21:21:31;15.02;;;3.01;;
17741;SDS011;8993;51.822;-2.268;2023-12-20T21:26:35;11.03;;;2.65;;
17741;SDS011;8993;51.822;-2.268;2023-12-20T21:31:40;14.85;;;2.79;;
17741;SDS011;8993;51.822;-2.268;2023-12-20T21:36:44;13.58;;;2.64;;
17741;SDS011;8993;51.822;-2.268;2023-12-20T21:41:48;11.69;;;2.50;;
17741;SDS011;8993;51.822;-2.268;2023-12-20T21:46:53;12.85;;;2.33;;
17741;SDS011;8993;51.822;-2.268;2023-12-20T21:51:57;13.92;;;2.38;;
17741;SDS011;8993;51.822;-2.268;2023-12-20T21:57:02;13.42;;;2.52;;
17741;SDS011;8993;51.822;-2.268;2023-12-20T22:02:06;14.58;;;3.14;;
17741;SDS011;8993;51.822;-2.268;2023-12-20T22:07:10;16.94;;;3.96;;
17741;SDS011;8993;51.822;-2.268;2023-12-20T22:12:14;13.13;;;2.98;;
17741;SDS011;8993;51.822;-2.268;2023-12-20T22:17:20;13.25;;;2.29;;
17741;SDS011;8993;51.822;-2.268;2023-12-20T22:22:24;9.98;;;2.21;;
17741;SDS011;8993;51.822;-2.268;2023-12-20T22:27:30;9.63;;;1.90;;
17741;SDS011;8993;51.822;-2.268;2023-12-20T22:32:35;10.20;;;2.41;;
17741;SDS011;8993;51.822;-2.268;2023-12-20T22:37:39;9.06;;;2.17;;
17741;SDS011;8993;51.822;-2.268;2023-12-20T22:42:43;8.83;;;1.84;;
17741;SDS011;8993;51.822;-2.268;2023-12-20T22:47:48;6.96;;;1.52;;
17741;SDS011;8993;51.822;-2.268;2023-12-20T22:52:52;4.08;;;1.04;;
17741;SDS011;8993;51.822;-2.268;2023-12-20T22:57:57;4.19;;;0.97;;
17741;SDS011;8993;51.822;-2.268;2023-12-20T23:03:01;3.65;;;0.82;;
17741;SDS011;8993;51.822;-2.268;2023-12-20T23:08:06;3.87;;;0.92;;
17741;SDS011;8993;51.822;-2.268;2023-12-20T23:13:09;3.40;;;0.93;;
17741;SDS011;8993;51.822;-2.268;2023-12-20T23:18:14;2.51;;;0.70;;
17741;SDS011;8993;51.822;-2.268;2023-12-20T23:33:27;2.59;;;0.61;;
17741;SDS011;8993;51.822;-2.268;2023-12-20T23:38:28;3.14;;;0.64;;
17741;SDS011;8993;51.822;-2.268;2023-12-20T23:43:33;2.57;;;0.50;;
17741;SDS011;8993;51.822;-2.268;2023-12-20T23:48:37;2.02;;;0.52;;
17741;SDS011;8993;51.822;-2.268;2023-12-20T23:53:41;2.11;;;0.56;;
17741;SDS011;8993;51.822;-2.268;2023-12-20T23:58:46;2.05;;;0.47;;
